NCAR-RAP Real-Time Weather Data

Output produced by METARs form (10 April 2020  07:30 UTC)
found at http://weather.rap.ucar.edu/surface/
 
KMOB 100656Z AUTO 02006KT 10SM -RA SCT095 BKN120 18/17 A2989 RMK AO2 TSB08E23 SLP119 P0013 T01780172
KMOB 100649Z AUTO 03003KT 9SM -RA SCT100 BKN120 18/17 A2989 RMK AO2 TSB08E23 P0013 T01780172
KMOB 100629Z AUTO 03006KT 6SM VCTS RA BR FEW070 BKN100 OVC110 18/17 A2990 RMK AO2 LTG DSNT SE AND S TSB08E23 PRESFR P0010 T01780172
KMOB 100614Z AUTO 34008KT 6SM TSRA BR FEW012 BKN090 OVC110 18/17 A2993 RMK AO2 LTG DSNT E-S TSB08 PRESFR P0007 T01780172
KMOB 100604Z AUTO 33009KT 4SM +RA BR SCT012 BKN050 OVC090 18/17 A2994 RMK AO2 LTG DSNT ALQDS P0004 T01830172
KMOB 100556Z AUTO 32009G16KT 4SM +RA BR FEW009 BKN013 OVC044 18/18 A2995 RMK AO2 PK WND 35030/0531 LTG DSNT ALQDS TSB15E30B34E49 SLP139 P0022 60022 T01830178 10261 20183 403220183 53041
KMOB 100552Z AUTO 33012G19KT 3SM +RA BR SCT010 OVC044 18/18 A2995 RMK AO2 PK WND 35030/0531 LTG DSNT ALQDS TSB15E30B34E49 P0020
KMOB 100540Z AUTO 33013G30KT 3SM +TSRA BR SCT010 BKN023 OVC049 19/18 A2994 RMK AO2 PK WND 35030/0531 LTG DSNT ALQDS TSB15E30B34 P0011 T01890178
KMOB 100533Z AUTO 33018G30KT 3SM VCTS +RA BR FEW008 BKN024 OVC049 19/18 A2993 RMK AO2 PK WND 35030/0531 LTG DSNT ALQDS TSB15E30 PRESRR P0008 T01940178
KMOB 100515Z AUTO 32012G16KT 9SM -TSRA BKN024 OVC043 22/19 A2988 RMK AO2 LTG DSNT SW-NW TSB15 PRESRR P0000 T02170189
KMOB 100456Z AUTO 35010KT 10SM -RA FEW017 BKN022 OVC028 23/20 A2985 RMK AO2 LTG DSNT W AND NW RAB46 SLP103 P0000 T02280200
KMOB 100424Z AUTO 00000KT 7SM FEW016 BKN024 OVC034 24/22 A2983 RMK AO2 LTG DSNT NW T02390217
KMOB 100356Z 01006KT 7SM FEW050 FEW200 23/22 A2983 RMK AO2 SLP096 T02330217
KMOB 100256Z 25005KT 7SM FEW050 FEW200 24/22 A2983 RMK AO2 SLP098 T02390217 53022
KMOB 100156Z 22004KT 7SM FEW050 SCT200 24/21 A2980 RMK AO2 LTG DSNT NE SLP090 CB DSNT NE T02390211
KMOB 100056Z 22005KT 7SM FEW050 SCT200 25/21 A2978 RMK AO2 SLP082 T02500211
KMOB 092356Z 21008KT 7SM FEW050 SCT200 26/22 A2976 RMK AO2 SLP075 T02610217 10322 20261 56011
KMOB 092256Z 17010KT 7SM SCT050 SCT075 BKN200 28/22 A2978 RMK AO2 SLP079 T02780222
KMOB 092156Z 17010KT 10SM SCT050 BKN200 30/21 A2978 RMK AO2 SLP079 T03000211
KMOB 092056Z 29004KT 10SM SCT047 BKN200 32/18 A2979 RMK AO2 SLP085 T03170183 58020
KMOB 091956Z VRB04KT 10SM FEW046 FEW055 BKN200 31/19 A2982 RMK AO2 SLP093 T03060189
KMOB 091856Z 00000KT 7SM SCT038 BKN050 BKN200 30/19 A2984 RMK AO2 SLP102 T03000189
KMOB 091756Z VRB04KT 7SM BKN030 BKN200 30/20 A2985 RMK AO2 SLP105 T03000200 10300 20217 58013
KMOB 091746Z 33005KT 10SM BKN030 BKN200 29/20 A2986 RMK AO2 T02940200
KMOB 091656Z VRB03KT 7SM BKN025 BKN100 28/21 A2987 RMK AO2 SLP112 T02830206
KMOB 091638Z 32007KT 7SM BKN025 BKN100 28/21 A2988 RMK AO2 T02780211
KMOB 091604Z 28007KT 7SM SCT019 BKN100 27/21 A2988 RMK AO2 T02720211
KMOB 091556Z VRB06KT 7SM BKN016 BKN100 27/21 A2989 RMK AO2 SLP116 T02720211
KMOB 091500Z 31007KT 7SM OVC015 25/21 A2989 RMK AO2 T02500206
KMOB 091456Z 27007KT 7SM OVC014 25/21 A2989 RMK AO2 SLP120 T02500206 50015
KMOB 091356Z 30010G18KT 7SM OVC013 23/21 A2989 RMK AO2 SLP120 T02330206
KMOB 091256Z 29005KT 5SM BR OVC013 22/21 A2987 RMK AO2 SLP111 T02220206
KMOB 091156Z 28004KT 5SM BR BKN013 22/21 A2985 RMK AO2 SLP105 T02170206 10228 20217 53015
KMOB 091141Z 28005KT 5SM BR BKN013 22/21 A2984 RMK AO2 T02170206
KMOB 091056Z 27006KT 7SM FEW009 OVC015 22/21 A2983 RMK AO2 SLP100 T02220206
KMOB 091017Z AUTO 26006KT 7SM FEW009 OVC015 22/21 A2982 RMK AO2 T02220211
KMOB 090956Z AUTO 26007KT 230V290 7SM OVC011 22/21 A2981 RMK AO2 SLP092 T02220211
KMOB 090856Z AUTO 24008KT 7SM OVC007 22/22 A2980 RMK AO2 SLP089 T02220217 56013
KMOB 090842Z AUTO 24007KT 5SM BR BKN007 22/22 A2980 RMK AO2 T02220217